Terminal Aerodrome Forecast
Issued by NWS

Home | Current Version | Previous Version | Text Only | Print | Product List | Glossary Off
Versions: 1 2 3 4 5 6 7 8 9 10 11 12 13 14 15 16 17

000
FTUS43 KMPX 242028 AAA
TAFRWF
TAF AMD
KRWF 242028Z 2420/2518 18014G24KT P6SM VCSH SCT070 BKN200
      TEMPO 2420/2424 4SM TSRA BKN050CB
     FM250100 19010KT P6SM SCT050 BKN100
     FM251300 23007KT P6SM FEW050 SCT250=

USA.gov is the U.S. government's official web portal to all federal, state and local government web resources and services.